Time;durP1;ratioP1;P1;durP2;ratioP2;P2;SDS_P1;SDS_P2;PMS_P1;PMS_P2;Temp;Humidity;BMP_temperature;BMP_pressure;BME280_temperature;BME280_humidity;BME280_pressure;Samples;Min_cycle;Max_cycle;Signal;HPM_P1;HPM_P2
2022/05/25 00:03:36;;;;;;;4.27;3.90;;;14.20;99.90;;;;;;10491089;28;20225;-84
2022/05/25 00:08:40;;;;;;;4.60;4.20;;;14.00;99.90;;;;;;10508061;28;20245;-83
2022/05/25 00:13:43;;;;;;;3.57;3.27;;;13.80;99.90;;;;;;10490440;28;20226;-84
2022/05/25 00:24:06;;;;;;;9.73;4.17;;;13.60;99.90;;;;;;10418638;28;20230;-83
2022/05/25 00:29:09;;;;;;;4.60;4.20;;;13.30;99.90;;;;;;10448691;28;20191;-84
2022/05/25 00:34:11;;;;;;;5.57;5.00;;;13.20;99.90;;;;;;10503248;28;20234;-84
2022/05/25 00:39:14;;;;;;;4.80;4.40;;;13.10;99.90;;;;;;10504120;28;20250;-84
2022/05/25 00:44:17;;;;;;;4.53;4.13;;;12.90;99.90;;;;;;10491327;28;20253;-84
2022/05/25 00:49:30;;;;;;;4.40;4.00;;;12.90;99.90;;;;;;10490147;28;20238;-83
2022/05/25 00:54:37;;;;;;;6.13;4.20;;;12.90;99.90;;;;;;10465077;28;20662;-84
2022/05/25 01:00:10;;;;;;;5.93;4.37;;;12.80;99.90;;;;;;10409716;28;20293;-83
2022/05/25 01:05:15;;;;;;;6.53;4.53;;;12.60;99.90;;;;;;10412617;28;20256;-84
2022/05/25 01:10:52;;;;;;;8.80;5.53;;;12.70;99.90;;;;;;10491343;28;20226;-84
2022/05/25 01:16:25;;;;;;;6.60;5.03;;;12.90;99.90;;;;;;10489423;28;20618;-84
2022/05/25 01:21:46;;;;;;;6.43;5.50;;;13.10;99.90;;;;;;10452562;28;20211;-84
2022/05/25 01:27:46;;;;;;;5.60;5.10;;;13.10;99.90;;;;;;10464390;28;20634;-83
2022/05/25 01:33:02;;;;;;;5.87;4.20;;;13.10;99.90;;;;;;10442022;28;20288;-83
2022/05/25 01:38:14;;;;;;;6.60;4.60;;;13.00;99.90;;;;;;10403021;28;20239;-84
2022/05/25 01:43:22;;;;;;;7.43;4.80;;;12.80;99.90;;;;;;10440496;28;20270;-83
2022/05/25 01:48:26;;;;;;;11.90;4.77;;;12.70;99.90;;;;;;10443353;28;20289;-83
2022/05/25 01:53:33;;;;;;;6.73;4.90;;;12.70;99.90;;;;;;10448085;28;20285;-83
2022/05/25 01:58:50;;;;;;;5.27;4.77;;;12.70;99.90;;;;;;10439362;28;20343;-84
2022/05/25 02:09:33;;;;;;;4.77;4.37;;;12.90;99.90;;;;;;10483610;28;20681;-83
2022/05/25 02:14:38;;;;;;;8.77;5.23;;;12.80;99.90;;;;;;10496656;28;20225;-83
2022/05/25 02:19:52;;;;;;;7.80;4.40;;;12.80;99.90;;;;;;10485809;28;20671;-83
2022/05/25 02:25:01;;;;;;;5.53;4.90;;;12.80;99.90;;;;;;10500844;28;20261;-84
2022/05/25 02:30:13;;;;;;;4.97;4.53;;;12.60;99.90;;;;;;10506934;28;20239;-84
2022/05/25 02:35:17;;;;;;;4.63;4.23;;;12.60;99.90;;;;;;10512439;28;20229;-83
2022/05/25 02:40:21;;;;;;;4.73;4.33;;;12.50;99.90;;;;;;10485698;28;20599;-83
2022/05/25 02:45:23;;;;;;;5.87;5.20;;;12.40;99.90;;;;;;10452131;28;20823;-83
2022/05/25 02:50:26;;;;;;;5.97;5.10;;;12.50;99.90;;;;;;10508756;28;20211;-83
2022/05/25 02:55:31;;;;;;;6.20;4.70;;;12.60;99.90;;;;;;10496087;28;20606;-82
2022/05/25 03:00:33;;;;;;;7.47;5.07;;;12.70;99.90;;;;;;10506689;28;20251;-83
2022/05/25 03:05:36;;;;;;;5.47;4.97;;;12.60;99.90;;;;;;10495356;28;20714;-83
2022/05/25 03:10:39;;;;;;;5.10;4.40;;;12.70;99.90;;;;;;10494381;28;20233;-83
2022/05/25 03:15:41;;;;;;;5.57;4.97;;;12.80;99.90;;;;;;10468930;28;20235;-83
2022/05/25 03:20:44;;;;;;;6.43;5.03;;;12.80;99.90;;;;;;10489947;28;20258;-83
2022/05/25 03:25:47;;;;;;;5.27;4.77;;;12.80;99.90;;;;;;10467361;28;20711;-83
2022/05/25 03:30:50;;;;;;;5.30;4.80;;;12.80;99.90;;;;;;10492136;28;20233;-83
2022/05/25 03:35:52;;;;;;;6.77;5.70;;;12.90;99.90;;;;;;10493804;28;20225;-83
2022/05/25 03:40:55;;;;;;;6.50;5.87;;;12.90;99.90;;;;;;10506441;28;20260;-83
2022/05/25 03:45:58;;;;;;;7.87;5.67;;;12.80;99.90;;;;;;10493080;28;20779;-83
2022/05/25 03:51:00;;;;;;;7.03;5.23;;;12.90;99.90;;;;;;10499094;28;20230;-83
2022/05/25 03:56:05;;;;;;;5.93;4.80;;;12.90;99.90;;;;;;10468318;28;20252;-83
2022/05/25 04:01:07;;;;;;;8.57;5.63;;;12.80;99.90;;;;;;10467394;28;20273;-83
2022/05/25 04:06:09;;;;;;;6.50;4.63;;;12.70;99.90;;;;;;10460972;28;20251;-83
2022/05/25 04:11:12;;;;;;;5.90;5.30;;;12.70;99.90;;;;;;10492404;28;20194;-83
2022/05/25 04:16:15;;;;;;;6.57;5.20;;;12.70;99.90;;;;;;10505316;28;20272;-83
2022/05/25 04:21:17;;;;;;;8.90;5.40;;;12.80;99.90;;;;;;10508347;28;20210;-83
2022/05/25 04:26:20;;;;;;;7.37;6.67;;;12.90;99.90;;;;;;10486662;28;20250;-83
2022/05/25 04:31:22;;;;;;;6.77;6.07;;;13.10;99.90;;;;;;10488898;28;20629;-83
2022/05/25 04:36:25;;;;;;;8.23;6.33;;;13.10;99.90;;;;;;10504868;28;20198;-83
2022/05/25 04:41:27;;;;;;;8.10;6.47;;;13.20;99.90;;;;;;10487792;28;20234;-84
2022/05/25 04:46:30;;;;;;;8.93;7.20;;;13.30;99.90;;;;;;10491619;28;20280;-84
2022/05/25 04:51:32;;;;;;;7.00;6.30;;;13.50;99.90;;;;;;10504315;28;20225;-83
2022/05/25 05:01:58;;;;;;;11.03;8.20;;;13.90;99.90;;;;;;10457987;28;20234;-83
2022/05/25 05:07:00;;;;;;;13.00;8.57;;;14.20;99.90;;;;;;10445337;28;20278;-83
2022/05/25 05:12:04;;;;;;;7.83;6.77;;;14.50;99.90;;;;;;10450105;28;20289;-83
2022/05/25 05:17:11;;;;;;;6.97;5.83;;;14.60;99.90;;;;;;10448856;28;20230;-83
2022/05/25 05:22:32;;;;;;;7.77;4.97;;;14.80;99.90;;;;;;10461803;28;20281;-83
2022/05/25 05:27:37;;;;;;;7.07;4.83;;;15.00;99.90;;;;;;10452081;28;20312;-84
2022/05/25 05:32:40;;;;;;;4.77;4.37;;;15.10;99.90;;;;;;10455898;28;20610;-83
2022/05/25 05:37:48;;;;;;;6.87;6.20;;;15.20;99.90;;;;;;10447732;28;20259;-82
2022/05/25 05:42:52;;;;;;;6.50;4.70;;;15.40;99.90;;;;;;10492049;28;20254;-83
2022/05/25 05:48:06;;;;;;;5.47;4.90;;;15.50;99.90;;;;;;10457766;28;20307;-84
2022/05/25 05:53:10;;;;;;;5.23;4.13;;;15.60;99.90;;;;;;10483226;28;20560;-84
2022/05/25 05:58:13;;;;;;;5.30;4.57;;;15.30;99.90;;;;;;10495117;28;20244;-84
2022/05/25 06:03:15;;;;;;;5.53;5.03;;;15.30;99.90;;;;;;10467678;28;20247;-83
2022/05/25 06:08:21;;;;;;;5.10;4.60;;;15.20;99.90;;;;;;10464607;28;20679;-83
2022/05/25 06:13:23;;;;;;;6.50;4.63;;;15.10;99.90;;;;;;10497016;28;20234;-84
2022/05/25 06:23:47;;;;;;;5.47;4.97;;;15.20;99.90;;;;;;10510991;28;20291;-83
2022/05/25 06:28:50;;;;;;;5.80;4.10;;;15.40;99.90;;;;;;10493139;28;20246;-83
2022/05/25 06:33:52;;;;;;;4.80;4.40;;;15.30;99.90;;;;;;10481172;28;20815;-83
2022/05/25 06:38:56;;;;;;;5.90;4.03;;;15.30;99.90;;;;;;10484214;28;20309;-84
2022/05/25 06:44:00;;;;;;;7.03;4.53;;;15.40;99.90;;;;;;10485598;28;20653;-83
2022/05/25 06:49:02;;;;;;;5.80;5.20;;;15.60;99.90;;;;;;10478495;28;20672;-84
2022/05/25 06:54:05;;;;;;;5.17;4.73;;;15.40;99.90;;;;;;10488398;28;20597;-84
2022/05/25 06:59:09;;;;;;;6.30;5.23;;;15.30;99.90;;;;;;10469286;28;20235;-84
2022/05/25 07:04:11;;;;;;;6.03;4.93;;;15.40;99.90;;;;;;10453192;28;20257;-83
2022/05/25 07:09:13;;;;;;;9.77;6.37;;;15.70;99.90;;;;;;10469102;28;20277;-84
2022/05/25 07:14:16;;;;;;;6.10;5.00;;;15.90;99.90;;;;;;10480031;28;20255;-83
2022/05/25 07:19:18;;;;;;;9.13;5.23;;;16.10;99.90;;;;;;10491190;28;20234;-83
2022/05/25 07:24:22;;;;;;;5.73;4.70;;;16.00;99.90;;;;;;10490240;28;20225;-84
2022/05/25 07:29:24;;;;;;;5.00;4.50;;;16.40;99.90;;;;;;10450940;28;20289;-83
2022/05/25 07:34:34;;;;;;;5.40;4.90;;;16.60;99.90;;;;;;10460657;28;20233;-83
2022/05/25 07:39:42;;;;;;;7.77;5.47;;;16.60;99.90;;;;;;10486207;28;20380;-83
2022/05/25 07:44:51;;;;;;;10.27;5.07;;;16.90;99.90;;;;;;10482517;28;20236;-83
2022/05/25 07:49:54;;;;;;;7.80;4.73;;;17.20;99.90;;;;;;10457826;28;20248;-83
2022/05/25 07:54:57;;;;;;;5.30;4.80;;;17.50;99.90;;;;;;10490753;28;20268;-83
2022/05/25 08:00:00;;;;;;;5.33;4.80;;;17.70;99.90;;;;;;10490317;28;20271;-84
2022/05/25 08:10:26;;;;;;;4.97;4.40;;;18.00;99.90;;;;;;10472230;28;20250;-84
2022/05/25 08:15:31;;;;;;;4.67;4.03;;;18.30;99.90;;;;;;10465925;28;20217;-85
2022/05/25 08:20:34;;;;;;;5.43;4.80;;;18.50;99.90;;;;;;10484115;28;20234;-84
2022/05/25 08:25:37;;;;;;;6.30;4.87;;;18.60;99.90;;;;;;10476945;28;20230;-85
2022/05/25 08:30:41;;;;;;;9.10;5.23;;;18.90;99.90;;;;;;10490847;28;20250;-84
2022/05/25 08:35:45;;;;;;;7.23;6.07;;;18.80;99.90;;;;;;10489785;28;20198;-84
2022/05/25 08:40:48;;;;;;;12.47;7.00;;;19.00;99.90;;;;;;10483473;28;20235;-84
2022/05/25 08:46:00;;;;;;;12.07;8.43;;;19.00;99.90;;;;;;10463633;28;20938;-85
2022/05/25 08:51:09;;;;;;;10.63;7.47;;;19.10;99.90;;;;;;10457426;28;20222;-84
2022/05/25 08:56:38;;;;;;;10.27;7.87;;;19.00;99.90;;;;;;10466627;28;20230;-84
2022/05/25 09:01:57;;;;;;;7.37;6.47;;;18.90;99.90;;;;;;10483385;28;20226;-84
2022/05/25 09:07:45;;;;;;;8.73;7.03;;;18.80;99.90;;;;;;10498971;28;20253;-84
2022/05/25 09:12:54;;;;;;;21.90;6.83;;;18.60;99.90;;;;;;10457544;28;20202;-84
2022/05/25 09:18:13;;;;;;;11.00;6.83;;;18.40;99.90;;;;;;10443120;28;20231;-85
2022/05/25 09:23:17;;;;;;;12.37;8.17;;;18.30;99.90;;;;;;10471930;28;20229;-84
2022/05/25 09:28:24;;;;;;;14.63;8.07;;;18.10;99.90;;;;;;10495069;28;20288;-85
2022/05/25 09:33:38;;;;;;;11.50;7.50;;;18.00;99.90;;;;;;10494819;28;20689;-83
2022/05/25 09:39:04;;;;;;;12.50;7.50;;;18.00;99.90;;;;;;10497799;28;20222;-84
2022/05/25 09:44:11;;;;;;;8.20;6.80;;;18.20;99.90;;;;;;10496133;28;20317;-84
2022/05/25 09:49:29;;;;;;;10.03;6.33;;;17.90;99.90;;;;;;10478844;28;20719;-84
2022/05/25 09:54:42;;;;;;;10.93;9.93;;;17.70;99.90;;;;;;10465850;28;20225;-84
2022/05/25 10:00:09;;;;;;;11.13;10.13;;;18.30;99.90;;;;;;10488525;28;20219;-84
2022/05/25 10:05:23;;;;;;;7.73;5.80;;;18.20;99.90;;;;;;10479643;28;20226;-84
2022/05/25 10:10:33;;;;;;;10.93;4.90;;;18.60;99.90;;;;;;10481357;28;20294;-84
2022/05/25 10:15:36;;;;;;;9.47;5.87;;;18.60;99.90;;;;;;10470819;28;20265;-84
2022/05/25 10:20:42;;;;;;;12.07;5.37;;;18.50;99.90;;;;;;10473407;28;20233;-83
2022/05/25 10:25:56;;;;;;;10.37;7.47;;;18.90;99.90;;;;;;10460791;28;20227;-83
2022/05/25 10:36:56;;;;;;;4.77;3.80;;;19.50;99.90;;;;;;10476581;28;20230;-83
2022/05/25 10:41:59;;;;;;;6.00;5.43;;;19.70;99.90;;;;;;10460613;28;20653;-83
2022/05/25 10:47:01;;;;;;;9.32;8.00;;;19.90;99.90;;;;;;10452065;28;20706;-83
2022/05/25 10:52:18;;;;;;;7.35;5.00;;;20.10;99.90;;;;;;10475688;28;20219;-82
2022/05/25 10:57:47;;;;;;;20.20;5.70;;;20.10;99.90;;;;;;10455946;28;20566;-83
2022/05/25 11:02:49;;;;;;;14.45;7.45;;;19.90;99.90;;;;;;10468686;28;20234;-83
2022/05/25 11:07:55;;;;;;;12.30;6.30;;;;;;;;;;10452490;28;20243;-83
2022/05/25 11:13:19;;;;;;;10.52;7.22;;;20.40;99.90;;;;;;10464570;28;20218;-83
2022/05/25 11:18:56;;;;;;;8.77;6.47;;;20.50;99.90;;;;;;10492096;28;20234;-83
2022/05/25 11:24:36;;;;;;;10.40;6.35;;;20.60;99.90;;;;;;10495027;28;20537;-83
2022/05/25 11:29:57;;;;;;;18.95;6.40;;;20.80;99.90;;;;;;10461265;28;20298;-83
2022/05/25 11:35:14;;;;;;;10.55;9.48;;;20.80;99.90;;;;;;10468464;28;20207;-83
2022/05/25 11:40:34;;;;;;;11.98;10.75;;;20.70;99.90;;;;;;10466246;28;20233;-83
2022/05/25 11:45:55;;;;;;;8.38;7.55;;;20.80;99.90;;;;;;10453194;28;20226;-83
2022/05/25 11:51:23;;;;;;;12.05;10.85;;;20.80;99.90;;;;;;10452791;28;20296;-83
2022/05/25 11:56:41;;;;;;;6.03;4.82;;;20.60;99.90;;;;;;10455784;28;20195;-83
2022/05/25 12:01:48;;;;;;;10.38;5.00;;;20.40;99.90;;;;;;10447074;28;20206;-84
2022/05/25 12:07:00;;;;;;;12.85;6.53;;;20.00;99.90;;;;;;10528363;28;20213;-83
2022/05/25 12:12:27;;;;;;;10.27;4.95;;;19.70;99.90;;;;;;10525322;28;20200;-84
2022/05/25 12:17:56;;;;;;;6.17;5.57;;;19.50;99.90;;;;;;10544257;28;20186;-83
2022/05/25 12:23:03;;;;;;;9.00;6.50;;;18.80;99.90;;;;;;10510070;28;20209;-84
2022/05/25 12:28:06;;;;;;;15.87;8.53;;;18.00;99.90;;;;;;10513109;28;20228;-83
2022/05/25 12:33:13;;;;;;;8.70;7.80;;;18.00;99.90;;;;;;10505545;28;20179;-84
2022/05/25 12:38:18;;;;;;;15.53;7.43;;;18.60;99.90;;;;;;10506005;28;20179;-84
2022/05/25 12:43:39;;;;;;;4.77;3.80;;;19.30;99.90;;;;;;10485569;28;20223;-84
2022/05/25 12:49:07;;;;;;;11.83;7.10;;;18.30;99.90;;;;;;10514123;28;20213;-84
2022/05/25 12:54:23;;;;;;;9.73;6.77;;;18.20;99.90;;;;;;10534138;28;20170;-85
2022/05/25 12:59:34;;;;;;;8.03;5.30;;;15.90;99.90;;;;;;10544719;28;20200;-85
2022/05/25 13:04:50;;;;;;;6.20;3.90;;;15.50;99.90;;;;;;10541654;28;20213;-84
2022/05/25 13:09:53;;;;;;;3.63;3.27;;;15.70;99.90;;;;;;10496027;28;20239;-83
2022/05/25 13:14:56;;;;;;;4.10;2.97;;;15.60;99.90;;;;;;10507656;28;20240;-84
2022/05/25 13:19:59;;;;;;;4.53;3.40;;;15.60;99.90;;;;;;10507623;28;20198;-84
2022/05/25 13:25:05;;;;;;;4.13;3.73;;;15.60;99.90;;;;;;10507490;28;20206;-83
2022/05/25 13:30:26;;;;;;;6.77;4.57;;;15.70;99.90;;;;;;10510958;28;20201;-84
2022/05/25 13:35:55;;;;;;;5.90;5.40;;;16.40;99.90;;;;;;10505209;28;20188;-84
2022/05/25 13:41:06;;;;;;;10.40;4.83;;;17.00;99.90;;;;;;10505316;28;20194;-84
2022/05/25 13:46:13;;;;;;;11.47;10.30;;;17.30;99.90;;;;;;10535154;28;20230;-83
2022/05/25 13:51:20;;;;;;;4.93;4.23;;;17.60;99.90;;;;;;10524470;28;20210;-84
2022/05/25 13:56:28;;;;;;;3.80;2.93;;;18.40;99.90;;;;;;10506598;28;20191;-83
2022/05/25 14:01:31;;;;;;;5.87;3.47;;;18.10;99.90;;;;;;10535030;28;20228;-84
2022/05/25 14:06:44;;;;;;;4.20;3.37;;;18.00;99.90;;;;;;10524197;28;20198;-84
2022/05/25 14:11:50;;;;;;;9.23;8.03;;;18.30;99.90;;;;;;10504581;28;20644;-85
2022/05/25 14:16:58;;;;;;;5.93;2.90;;;18.60;99.90;;;;;;10457175;28;20202;-85
2022/05/25 14:22:06;;;;;;;10.13;9.23;;;18.70;99.90;;;;;;10503737;28;20572;-84
2022/05/25 14:27:24;;;;;;;4.97;2.30;;;19.00;99.90;;;;;;10462413;28;20203;-85
2022/05/25 14:32:29;;;;;;;2.73;2.13;;;18.80;99.90;;;;;;10451833;28;20226;-85
2022/05/25 14:37:35;;;;;;;7.90;7.10;;;18.70;99.90;;;;;;10419779;28;20216;-84
2022/05/25 14:42:59;;;;;;;3.10;2.80;;;19.40;99.90;;;;;;10486864;28;20230;-84
2022/05/25 14:48:02;;;;;;;9.87;7.83;;;19.70;99.90;;;;;;10437790;28;20242;-85
2022/05/25 14:53:14;;;;;;;4.17;3.83;;;19.40;99.90;;;;;;10419713;28;20535;-85
2022/05/25 14:58:24;;;;;;;7.50;5.65;;;19.50;99.90;;;;;;10417030;28;20200;-85
2022/05/25 15:03:47;;;;;;;3.03;2.72;;;19.70;99.90;;;;;;10420267;28;20194;-84
2022/05/25 15:08:53;;;;;;;7.15;6.55;;;19.70;99.90;;;;;;10441434;28;20307;-84
2022/05/25 15:19:30;;;;;;;10.70;8.70;;;19.40;99.90;;;;;;10453016;28;20235;-84
2022/05/25 15:24:32;;;;;;;9.10;8.30;;;20.00;99.90;;;;;;10454326;28;20207;-84
2022/05/25 15:29:50;;;;;;;9.77;8.87;;;20.50;99.90;;;;;;10477451;28;20257;-84
2022/05/25 15:34:53;;;;;;;5.30;1.70;;;20.80;99.90;;;;;;10485897;28;20199;-84
2022/05/25 15:39:58;;;;;;;6.63;5.43;;;20.60;99.90;;;;;;10473037;28;20243;-84
2022/05/25 15:45:23;;;;;;;10.80;9.80;;;19.70;99.90;;;;;;10462328;28;20275;-83
2022/05/25 15:50:33;;;;;;;10.55;9.45;;;19.90;99.90;;;;;;10459531;28;20300;-84
2022/05/25 15:55:38;;;;;;;8.43;7.65;;;20.40;99.90;;;;;;10454969;28;20203;-84
2022/05/25 16:00:43;;;;;;;10.07;9.18;;;20.50;99.90;;;;;;10447272;28;20668;-83
2022/05/25 16:05:48;;;;;;;2.92;2.65;;;20.60;99.90;;;;;;10449771;28;20245;-84
2022/05/25 16:10:51;;;;;;;8.57;6.68;;;20.40;99.90;;;;;;10480084;28;20253;-84
2022/05/25 16:15:54;;;;;;;9.43;8.57;;;20.80;99.90;;;;;;10463785;28;20227;-84
2022/05/25 16:20:59;;;;;;;2.83;2.28;;;20.70;99.90;;;;;;10449631;28;20285;-83
2022/05/25 16:26:03;;;;;;;6.05;2.97;;;20.50;99.90;;;;;;10455253;28;20278;-83
2022/05/25 16:31:05;;;;;;;3.83;3.40;;;20.40;99.90;;;;;;10475496;28;20254;-84
2022/05/25 16:36:08;;;;;;;7.25;4.95;;;20.50;99.90;;;;;;10481057;28;20619;-86
2022/05/25 16:41:11;;;;;;;3.58;3.08;;;20.30;99.90;;;;;;10493451;28;20566;-93
2022/05/25 16:46:14;;;;;;;4.22;2.92;;;20.20;99.90;;;;;;10475368;28;20234;-94
2022/05/25 16:51:20;;;;;;;3.45;3.15;;;19.80;99.90;;;;;;10465762;28;20284;-88
2022/05/25 16:56:24;;;;;;;6.20;4.43;;;19.30;99.90;;;;;;10449130;28;20757;-88
2022/05/25 17:01:26;;;;;;;6.83;3.90;;;18.80;99.90;;;;;;10448691;28;20243;-88
2022/05/25 17:06:30;;;;;;;5.57;3.63;;;18.40;99.90;;;;;;10474952;28;20292;-88
2022/05/25 17:11:33;;;;;;;3.60;3.30;;;18.40;99.90;;;;;;10491102;28;20253;-89
2022/05/25 17:16:36;;;;;;;4.27;3.87;;;18.50;99.90;;;;;;10478984;28;20299;-88
2022/05/25 17:21:39;;;;;;;4.00;3.60;;;18.60;99.90;;;;;;10488278;28;20626;-89
2022/05/25 17:26:42;;;;;;;6.53;3.80;;;18.60;99.90;;;;;;10499303;28;20237;-88
2022/05/25 17:31:45;;;;;;;8.97;3.83;;;18.90;99.90;;;;;;10498358;28;20253;-88
2022/05/25 17:42:10;;;;;;;5.87;3.70;;;18.70;99.90;;;;;;10498204;28;20265;-89
2022/05/25 17:47:13;;;;;;;5.63;5.13;;;18.60;99.90;;;;;;10495968;28;20287;-88
2022/05/25 17:52:17;;;;;;;6.67;5.40;;;18.70;99.90;;;;;;10492035;28;20253;-88
2022/05/25 17:57:21;;;;;;;8.93;4.40;;;18.30;99.90;;;;;;10455140;28;20195;-89
2022/05/25 18:02:23;;;;;;;3.33;3.03;;;18.10;99.90;;;;;;10454902;28;20251;-89
2022/05/25 18:07:26;;;;;;;4.53;3.27;;;18.00;99.90;;;;;;10456299;28;20238;-88
2022/05/25 18:12:34;;;;;;;4.40;3.23;;;17.70;99.90;;;;;;10456118;28;20253;-89
2022/05/25 18:17:40;;;;;;;6.20;5.67;;;17.50;99.90;;;;;;10473861;28;20230;-93
2022/05/25 18:22:43;;;;;;;4.63;4.23;;;17.80;99.90;;;;;;10447552;28;20211;-92
2022/05/25 18:27:46;;;;;;;4.00;3.17;;;18.50;99.90;;;;;;10458746;28;20633;-92
2022/05/25 18:32:49;;;;;;;4.67;3.83;;;17.30;99.90;;;;;;10460160;28;20254;-90
2022/05/25 18:37:52;;;;;;;8.23;4.60;;;16.80;99.90;;;;;;10436105;28;20231;-89
2022/05/25 18:42:55;;;;;;;6.73;4.60;;;16.60;99.90;;;;;;10462191;28;20315;-91
2022/05/25 18:47:58;;;;;;;9.03;4.13;;;16.50;99.90;;;;;;10475469;28;20215;-91
2022/05/25 18:53:01;;;;;;;5.30;3.73;;;16.70;99.90;;;;;;10445596;28;20649;-91
2022/05/25 18:58:04;;;;;;;3.63;3.33;;;17.20;99.90;;;;;;10453443;28;20233;-91
2022/05/25 19:03:07;;;;;;;5.23;4.07;;;17.90;99.90;;;;;;10439357;28;20252;-91
2022/05/25 19:08:11;;;;;;;5.37;2.83;;;18.00;99.90;;;;;;10488933;28;20350;-90
2022/05/25 19:13:16;;;;;;;4.87;3.03;;;17.10;99.90;;;;;;10465736;28;20287;-91
2022/05/25 19:18:19;;;;;;;3.77;2.67;;;16.90;99.90;;;;;;10485490;28;20237;-92
2022/05/25 19:23:27;;;;;;;4.60;3.00;;;16.40;99.90;;;;;;10473656;28;20606;-90
2022/05/25 19:28:32;;;;;;;4.50;3.33;;;16.30;99.90;;;;;;10448815;28;20231;-89
2022/05/25 19:33:35;;;;;;;4.90;3.10;;;15.20;99.90;;;;;;10452807;28;20245;-90
2022/05/25 19:38:42;;;;;;;7.67;6.90;;;14.60;99.90;;;;;;10461355;28;20290;-90
2022/05/25 19:43:48;;;;;;;8.87;4.33;;;14.30;99.90;;;;;;10455406;28;20805;-89
2022/05/25 19:48:51;;;;;;;7.63;3.87;;;13.80;99.90;;;;;;10486186;28;20739;-89
2022/05/25 19:53:54;;;;;;;4.40;3.50;;;13.50;99.90;;;;;;10438623;28;20231;-90
2022/05/25 19:58:57;;;;;;;4.17;3.33;;;13.10;99.90;;;;;;10423351;28;20292;-90
2022/05/25 20:03:59;;;;;;;5.87;3.50;;;12.60;99.90;;;;;;10444401;28;20229;-90
2022/05/25 20:09:02;;;;;;;6.53;4.00;;;12.30;99.90;;;;;;10431834;28;20790;-91
2022/05/25 20:14:06;;;;;;;4.23;3.80;;;12.30;99.90;;;;;;10421538;28;20238;-91
2022/05/25 20:19:09;;;;;;;8.10;4.20;;;12.20;99.90;;;;;;10453032;28;20208;-92
2022/05/25 20:24:11;;;;;;;11.93;4.57;;;12.00;99.90;;;;;;10474298;28;20235;-90
2022/05/25 20:29:14;;;;;;;8.13;5.23;;;11.70;99.90;;;;;;10457277;28;20258;-89
2022/05/25 20:34:16;;;;;;;7.60;6.10;;;11.70;99.90;;;;;;10463448;28;20224;-90
2022/05/25 20:39:20;;;;;;;12.80;6.50;;;11.50;99.90;;;;;;10479736;28;20251;-88
2022/05/25 20:44:23;;;;;;;9.10;7.03;;;11.30;99.90;;;;;;10475701;28;20262;-89
2022/05/25 20:49:26;;;;;;;8.60;6.50;;;11.10;99.90;;;;;;10450213;28;20307;-89
2022/05/25 20:54:30;;;;;;;10.20;6.10;;;11.00;99.90;;;;;;10449689;28;20264;-89
2022/05/25 20:59:33;;;;;;;9.30;7.03;;;10.80;99.90;;;;;;10461038;28;20222;-88
2022/05/25 21:04:36;;;;;;;8.73;7.10;;;10.70;99.90;;;;;;10451362;28;20355;-88
2022/05/25 21:09:44;;;;;;;10.73;6.83;;;10.60;99.90;;;;;;10435921;28;20246;-89
2022/05/25 21:14:49;;;;;;;9.97;7.80;;;10.50;99.90;;;;;;10485974;28;20230;-88
2022/05/25 21:19:51;;;;;;;10.37;8.37;;;10.50;99.90;;;;;;10451700;28;20292;-89
2022/05/25 21:24:54;;;;;;;14.07;6.83;;;10.40;99.90;;;;;;10488521;28;20656;-89
2022/05/25 21:29:57;;;;;;;12.03;8.23;;;10.60;99.90;;;;;;10491451;28;20761;-89
2022/05/25 21:35:00;;;;;;;14.47;8.33;;;10.60;99.90;;;;;;10487993;28;20287;-90
2022/05/25 21:40:04;;;;;;;16.03;8.47;;;10.60;99.90;;;;;;10490000;28;20234;-88
2022/05/25 21:45:09;;;;;;;13.47;7.27;;;10.70;99.90;;;;;;10489551;28;20284;-89
2022/05/25 21:50:12;;;;;;;12.07;7.30;;;10.70;99.90;;;;;;10475218;28;20242;-89
2022/05/25 21:55:25;;;;;;;10.03;7.20;;;10.60;99.90;;;;;;10477842;28;20238;-89
2022/05/25 22:00:27;;;;;;;10.77;7.90;;;10.40;99.90;;;;;;10483992;28;20202;-89
2022/05/25 22:05:30;;;;;;;10.93;7.20;;;10.20;99.90;;;;;;10448983;28;20234;-89
2022/05/25 22:10:33;;;;;;;11.10;8.30;;;10.20;99.90;;;;;;10452921;28;20330;-89
2022/05/25 22:15:36;;;;;;;11.20;7.07;;;10.00;99.90;;;;;;10480246;28;20668;-89
2022/05/25 22:20:39;;;;;;;10.47;7.67;;;9.80;99.90;;;;;;10477899;28;20211;-89
2022/05/25 22:25:42;;;;;;;9.03;7.13;;;9.60;99.90;;;;;;10471302;28;20214;-90
2022/05/25 22:30:44;;;;;;;10.37;7.53;;;9.50;99.90;;;;;;10477086;28;20687;-89
2022/05/25 22:35:47;;;;;;;9.67;6.97;;;9.50;99.90;;;;;;10495070;28;20260;-89
2022/05/25 22:40:50;;;;;;;7.93;7.10;;;9.20;99.90;;;;;;10495259;28;20233;-89
2022/05/25 22:45:53;;;;;;;9.17;7.40;;;9.10;99.90;;;;;;10480763;28;20296;-90
2022/05/25 22:50:56;;;;;;;13.47;7.03;;;9.00;99.90;;;;;;10494061;28;20249;-89
2022/05/25 22:56:00;;;;;;;7.13;6.23;;;8.80;99.90;;;;;;10473642;28;20632;-90
2022/05/25 23:01:03;;;;;;;6.93;6.23;;;8.70;99.90;;;;;;10460951;28;20279;-89
2022/05/25 23:06:05;;;;;;;11.13;6.87;;;8.70;99.90;;;;;;10492992;28;20682;-89
2022/05/25 23:11:08;;;;;;;12.63;7.07;;;8.60;99.90;;;;;;10510631;28;20782;-89
2022/05/25 23:16:13;;;;;;;12.10;7.50;;;8.50;99.90;;;;;;10492322;28;20647;-88
2022/05/25 23:21:16;;;;;;;9.40;6.60;;;8.50;99.90;;;;;;10493425;28;20643;-89
2022/05/25 23:26:18;;;;;;;9.23;6.93;;;8.50;99.90;;;;;;10492806;28;20301;-91
2022/05/25 23:31:21;;;;;;;11.77;7.03;;;8.30;99.90;;;;;;10464665;28;20311;-90
2022/05/25 23:36:24;;;;;;;10.87;6.47;;;8.30;99.90;;;;;;10455111;28;20942;-91
2022/05/25 23:46:47;;;;;;;8.90;6.73;;;8.30;99.90;;;;;;10456486;28;20776;-91
2022/05/25 23:51:49;;;;;;;7.53;6.40;;;8.20;99.90;;;;;;10462367;28;20314;-90
2022/05/25 23:56:52;;;;;;;9.97;7.73;;;8.20;99.90;;;;;;10452293;28;20810;-90
